sensor_id;sensor_type;location;lat;lon;timestamp;temperature;humidity
41928;DHT22;27616;51.420;6.788;2023-09-08T00:01:49;19.10;99.90
41928;DHT22;27616;51.420;6.788;2023-09-08T00:04:15;19.00;99.90
41928;DHT22;27616;51.420;6.788;2023-09-08T00:06:41;19.00;99.90
41928;DHT22;27616;51.420;6.788;2023-09-08T00:09:07;19.00;99.90
41928;DHT22;27616;51.420;6.788;2023-09-08T00:11:33;19.00;99.90
41928;DHT22;27616;51.420;6.788;2023-09-08T00:13:58;19.00;99.90
41928;DHT22;27616;51.420;6.788;2023-09-08T00:16:24;18.90;99.90
41928;DHT22;27616;51.420;6.788;2023-09-08T00:18:50;18.90;99.90
41928;DHT22;27616;51.420;6.788;2023-09-08T00:21:15;18.80;99.90
41928;DHT22;27616;51.420;6.788;2023-09-08T00:23:41;18.80;99.90
41928;DHT22;27616;51.420;6.788;2023-09-08T00:26:07;18.70;99.90
41928;DHT22;27616;51.420;6.788;2023-09-08T00:28:34;18.70;99.90
41928;DHT22;27616;51.420;6.788;2023-09-08T00:31:00;18.60;99.90
41928;DHT22;27616;51.420;6.788;2023-09-08T00:33:26;18.60;99.90
41928;DHT22;27616;51.420;6.788;2023-09-08T00:35:52;18.50;99.90
41928;DHT22;27616;51.420;6.788;2023-09-08T00:38:19;18.50;99.90
41928;DHT22;27616;51.420;6.788;2023-09-08T00:40:45;18.50;99.90
41928;DHT22;27616;51.420;6.788;2023-09-08T00:43:10;18.40;99.90
41928;DHT22;27616;51.420;6.788;2023-09-08T00:45:39;18.40;99.90
41928;DHT22;27616;51.420;6.788;2023-09-08T00:48:06;18.30;99.90
41928;DHT22;27616;51.420;6.788;2023-09-08T00:50:32;18.30;99.90
41928;DHT22;27616;51.420;6.788;2023-09-08T00:52:57;18.30;99.90
41928;DHT22;27616;51.420;6.788;2023-09-08T00:55:23;18.20;99.90
41928;DHT22;27616;51.420;6.788;2023-09-08T00:57:50;18.20;99.90
41928;DHT22;27616;51.420;6.788;2023-09-08T01:00:16;18.20;99.90
41928;DHT22;27616;51.420;6.788;2023-09-08T01:02:41;18.20;99.90
41928;DHT22;27616;51.420;6.788;2023-09-08T01:05:09;18.10;99.90
41928;DHT22;27616;51.420;6.788;2023-09-08T01:07:35;18.10;99.90
41928;DHT22;27616;51.420;6.788;2023-09-08T01:10:01;18.00;99.90
41928;DHT22;27616;51.420;6.788;2023-09-08T01:12:32;18.00;99.90
41928;DHT22;27616;51.420;6.788;2023-09-08T01:14:58;17.90;99.90
41928;DHT22;27616;51.420;6.788;2023-09-08T01:17:25;17.90;99.90
41928;DHT22;27616;51.420;6.788;2023-09-08T01:19:55;17.80;99.90
41928;DHT22;27616;51.420;6.788;2023-09-08T01:27:25;17.70;99.90
41928;DHT22;27616;51.420;6.788;2023-09-08T01:29:52;17.70;99.90
41928;DHT22;27616;51.420;6.788;2023-09-08T01:32:19;17.70;99.90
41928;DHT22;27616;51.420;6.788;2023-09-08T01:34:45;17.70;99.90
41928;DHT22;27616;51.420;6.788;2023-09-08T01:37:11;17.60;99.90
41928;DHT22;27616;51.420;6.788;2023-09-08T01:39:36;17.60;99.90
41928;DHT22;27616;51.420;6.788;2023-09-08T01:42:03;17.50;99.90
41928;DHT22;27616;51.420;6.788;2023-09-08T01:44:28;17.50;99.90
41928;DHT22;27616;51.420;6.788;2023-09-08T01:46:54;17.50;99.90
41928;DHT22;27616;51.420;6.788;2023-09-08T01:49:25;17.50;99.90
41928;DHT22;27616;51.420;6.788;2023-09-08T01:51:51;17.40;99.90
41928;DHT22;27616;51.420;6.788;2023-09-08T01:54:17;17.40;99.90
41928;DHT22;27616;51.420;6.788;2023-09-08T01:56:43;17.40;99.90
41928;DHT22;27616;51.420;6.788;2023-09-08T01:59:08;17.30;99.90
41928;DHT22;27616;51.420;6.788;2023-09-08T02:01:34;17.30;99.90
41928;DHT22;27616;51.420;6.788;2023-09-08T02:03:59;17.30;99.90
41928;DHT22;27616;51.420;6.788;2023-09-08T02:06:25;17.20;99.90
41928;DHT22;27616;51.420;6.788;2023-09-08T02:08:52;17.20;99.90
41928;DHT22;27616;51.420;6.788;2023-09-08T02:11:17;17.10;99.90
41928;DHT22;27616;51.420;6.788;2023-09-08T02:13:43;17.10;99.90
41928;DHT22;27616;51.420;6.788;2023-09-08T02:16:13;17.10;99.90
41928;DHT22;27616;51.420;6.788;2023-09-08T02:18:41;17.00;99.90
41928;DHT22;27616;51.420;6.788;2023-09-08T02:21:06;17.00;99.90
41928;DHT22;27616;51.420;6.788;2023-09-08T02:23:32;16.90;99.90
41928;DHT22;27616;51.420;6.788;2023-09-08T02:25:58;17.00;99.90
41928;DHT22;27616;51.420;6.788;2023-09-08T02:28:24;16.90;99.90
41928;DHT22;27616;51.420;6.788;2023-09-08T02:30:51;16.90;99.90
41928;DHT22;27616;51.420;6.788;2023-09-08T02:33:17;16.90;99.90
41928;DHT22;27616;51.420;6.788;2023-09-08T02:35:43;16.80;99.90
41928;DHT22;27616;51.420;6.788;2023-09-08T02:38:09;16.90;99.90
41928;DHT22;27616;51.420;6.788;2023-09-08T02:40:36;16.90;99.90
41928;DHT22;27616;51.420;6.788;2023-09-08T02:43:03;16.90;99.90
41928;DHT22;27616;51.420;6.788;2023-09-08T02:45:29;16.90;99.90
41928;DHT22;27616;51.420;6.788;2023-09-08T02:47:55;16.80;99.90
41928;DHT22;27616;51.420;6.788;2023-09-08T02:50:21;16.80;99.90
41928;DHT22;27616;51.420;6.788;2023-09-08T02:52:47;16.80;99.90
41928;DHT22;27616;51.420;6.788;2023-09-08T02:55:13;16.80;99.90
41928;DHT22;27616;51.420;6.788;2023-09-08T02:57:39;16.80;99.90
41928;DHT22;27616;51.420;6.788;2023-09-08T03:00:06;16.80;99.90
41928;DHT22;27616;51.420;6.788;2023-09-08T03:02:35;16.70;99.90
41928;DHT22;27616;51.420;6.788;2023-09-08T03:05:01;16.70;99.90
41928;DHT22;27616;51.420;6.788;2023-09-08T03:07:27;16.70;99.90
41928;DHT22;27616;51.420;6.788;2023-09-08T03:09:53;16.70;99.90
41928;DHT22;27616;51.420;6.788;2023-09-08T03:12:20;16.70;99.90
41928;DHT22;27616;51.420;6.788;2023-09-08T03:14:46;16.70;99.90
41928;DHT22;27616;51.420;6.788;2023-09-08T03:17:12;16.70;99.90
41928;DHT22;27616;51.420;6.788;2023-09-08T03:19:39;16.70;99.90
41928;DHT22;27616;51.420;6.788;2023-09-08T03:22:06;16.60;99.90
41928;DHT22;27616;51.420;6.788;2023-09-08T03:24:31;16.60;99.90
41928;DHT22;27616;51.420;6.788;2023-09-08T03:26:57;16.60;99.90
41928;DHT22;27616;51.420;6.788;2023-09-08T03:29:23;16.60;99.90
41928;DHT22;27616;51.420;6.788;2023-09-08T03:31:49;16.60;99.90
41928;DHT22;27616;51.420;6.788;2023-09-08T03:34:15;16.50;99.90
41928;DHT22;27616;51.420;6.788;2023-09-08T03:36:41;16.50;99.90
41928;DHT22;27616;51.420;6.788;2023-09-08T03:39:07;16.50;99.90
41928;DHT22;27616;51.420;6.788;2023-09-08T03:41:35;16.50;99.90
41928;DHT22;27616;51.420;6.788;2023-09-08T03:44:00;16.40;99.90
41928;DHT22;27616;51.420;6.788;2023-09-08T03:46:26;16.40;99.90
41928;DHT22;27616;51.420;6.788;2023-09-08T03:48:51;16.40;99.90
41928;DHT22;27616;51.420;6.788;2023-09-08T03:51:21;16.30;99.90
41928;DHT22;27616;51.420;6.788;2023-09-08T03:53:46;16.30;99.90
41928;DHT22;27616;51.420;6.788;2023-09-08T03:56:12;16.30;99.90
41928;DHT22;27616;51.420;6.788;2023-09-08T03:58:38;16.30;99.90
41928;DHT22;27616;51.420;6.788;2023-09-08T04:01:04;16.20;99.90
41928;DHT22;27616;51.420;6.788;2023-09-08T04:03:29;16.20;99.90
41928;DHT22;27616;51.420;6.788;2023-09-08T04:05:55;16.20;99.90
41928;DHT22;27616;51.420;6.788;2023-09-08T04:08:21;16.20;99.90
41928;DHT22;27616;51.420;6.788;2023-09-08T04:10:46;16.20;99.90
41928;DHT22;27616;51.420;6.788;2023-09-08T04:13:13;16.20;99.90
41928;DHT22;27616;51.420;6.788;2023-09-08T04:15:39;16.20;99.90
41928;DHT22;27616;51.420;6.788;2023-09-08T04:18:04;16.20;99.90
41928;DHT22;27616;51.420;6.788;2023-09-08T04:20:31;16.10;99.90
41928;DHT22;27616;51.420;6.788;2023-09-08T04:22:56;16.10;99.90
41928;DHT22;27616;51.420;6.788;2023-09-08T04:25:22;16.10;99.90
41928;DHT22;27616;51.420;6.788;2023-09-08T04:27:48;16.10;99.90
41928;DHT22;27616;51.420;6.788;2023-09-08T04:30:13;16.10;99.90
41928;DHT22;27616;51.420;6.788;2023-09-08T04:32:39;16.10;99.90
41928;DHT22;27616;51.420;6.788;2023-09-08T04:35:06;16.10;99.90
41928;DHT22;27616;51.420;6.788;2023-09-08T04:37:32;16.00;99.90
41928;DHT22;27616;51.420;6.788;2023-09-08T04:39:59;16.00;99.90
41928;DHT22;27616;51.420;6.788;2023-09-08T04:42:24;16.00;99.90
41928;DHT22;27616;51.420;6.788;2023-09-08T04:44:51;16.00;99.90
41928;DHT22;27616;51.420;6.788;2023-09-08T04:47:16;15.90;99.90
41928;DHT22;27616;51.420;6.788;2023-09-08T04:49:42;15.90;99.90
41928;DHT22;27616;51.420;6.788;2023-09-08T04:52:08;15.90;99.90
41928;DHT22;27616;51.420;6.788;2023-09-08T04:54:34;15.90;99.90
41928;DHT22;27616;51.420;6.788;2023-09-08T04:57:00;15.90;99.90
41928;DHT22;27616;51.420;6.788;2023-09-08T04:59:26;15.80;99.90
41928;DHT22;27616;51.420;6.788;2023-09-08T05:01:53;15.80;99.90
41928;DHT22;27616;51.420;6.788;2023-09-08T05:04:19;15.80;99.90
41928;DHT22;27616;51.420;6.788;2023-09-08T05:06:45;15.80;99.90
41928;DHT22;27616;51.420;6.788;2023-09-08T05:09:12;15.80;99.90
41928;DHT22;27616;51.420;6.788;2023-09-08T05:11:38;15.80;99.90
41928;DHT22;27616;51.420;6.788;2023-09-08T05:14:04;15.80;99.90
41928;DHT22;27616;51.420;6.788;2023-09-08T05:16:30;15.80;99.90
41928;DHT22;27616;51.420;6.788;2023-09-08T05:19:12;15.80;99.90
41928;DHT22;27616;51.420;6.788;2023-09-08T05:21:41;15.80;99.90
41928;DHT22;27616;51.420;6.788;2023-09-08T05:24:08;15.80;99.90
41928;DHT22;27616;51.420;6.788;2023-09-08T05:26:37;15.80;99.90
41928;DHT22;27616;51.420;6.788;2023-09-08T05:29:04;15.80;99.90
41928;DHT22;27616;51.420;6.788;2023-09-08T05:31:30;15.80;99.90
41928;DHT22;27616;51.420;6.788;2023-09-08T05:33:56;15.80;99.90
41928;DHT22;27616;51.420;6.788;2023-09-08T05:36:22;15.80;99.90
41928;DHT22;27616;51.420;6.788;2023-09-08T05:38:48;15.90;99.90
41928;DHT22;27616;51.420;6.788;2023-09-08T05:41:13;15.80;99.90
41928;DHT22;27616;51.420;6.788;2023-09-08T05:43:40;15.90;99.90
41928;DHT22;27616;51.420;6.788;2023-09-08T05:46:06;15.90;99.90
41928;DHT22;27616;51.420;6.788;2023-09-08T05:48:31;16.00;99.90
41928;DHT22;27616;51.420;6.788;2023-09-08T05:50:58;16.00;99.90
41928;DHT22;27616;51.420;6.788;2023-09-08T05:53:25;16.00;99.90
41928;DHT22;27616;51.420;6.788;2023-09-08T05:55:50;16.10;99.90
41928;DHT22;27616;51.420;6.788;2023-09-08T05:58:16;16.20;99.90
41928;DHT22;27616;51.420;6.788;2023-09-08T06:00:42;16.30;99.90
41928;DHT22;27616;51.420;6.788;2023-09-08T06:03:08;16.30;99.90
41928;DHT22;27616;51.420;6.788;2023-09-08T06:05:34;16.40;99.90
41928;DHT22;27616;51.420;6.788;2023-09-08T06:07:59;16.40;99.90
41928;DHT22;27616;51.420;6.788;2023-09-08T06:10:25;16.50;99.90
41928;DHT22;27616;51.420;6.788;2023-09-08T06:12:51;16.60;99.90
41928;DHT22;27616;51.420;6.788;2023-09-08T06:15:17;16.70;99.90
41928;DHT22;27616;51.420;6.788;2023-09-08T06:17:43;16.80;99.90
41928;DHT22;27616;51.420;6.788;2023-09-08T06:20:09;16.90;99.90
41928;DHT22;27616;51.420;6.788;2023-09-08T06:22:35;17.00;99.90
41928;DHT22;27616;51.420;6.788;2023-09-08T06:25:00;17.00;99.90
41928;DHT22;27616;51.420;6.788;2023-09-08T06:27:26;17.10;99.90
41928;DHT22;27616;51.420;6.788;2023-09-08T06:29:52;17.20;99.90
41928;DHT22;27616;51.420;6.788;2023-09-08T06:32:18;17.30;99.90
41928;DHT22;27616;51.420;6.788;2023-09-08T06:34:46;17.40;99.90
41928;DHT22;27616;51.420;6.788;2023-09-08T06:37:11;17.50;99.90
41928;DHT22;27616;51.420;6.788;2023-09-08T06:39:37;17.60;99.90
41928;DHT22;27616;51.420;6.788;2023-09-08T06:42:03;17.70;99.90
41928;DHT22;27616;51.420;6.788;2023-09-08T06:44:29;17.80;99.90
41928;DHT22;27616;51.420;6.788;2023-09-08T06:46:56;17.90;99.90
41928;DHT22;27616;51.420;6.788;2023-09-08T06:49:23;18.00;99.90
41928;DHT22;27616;51.420;6.788;2023-09-08T06:51:49;18.10;99.90
41928;DHT22;27616;51.420;6.788;2023-09-08T06:54:15;18.20;99.90
41928;DHT22;27616;51.420;6.788;2023-09-08T06:56:43;18.30;99.90
41928;DHT22;27616;51.420;6.788;2023-09-08T06:59:08;18.50;99.90
41928;DHT22;27616;51.420;6.788;2023-09-08T07:01:35;18.70;99.90
41928;DHT22;27616;51.420;6.788;2023-09-08T07:04:01;18.80;99.90
41928;DHT22;27616;51.420;6.788;2023-09-08T07:06:27;19.00;99.90
41928;DHT22;27616;51.420;6.788;2023-09-08T07:08:52;19.10;99.90
41928;DHT22;27616;51.420;6.788;2023-09-08T07:11:20;19.30;99.90
41928;DHT22;27616;51.420;6.788;2023-09-08T07:13:46;19.30;99.90
41928;DHT22;27616;51.420;6.788;2023-09-08T07:16:12;19.40;99.90
41928;DHT22;27616;51.420;6.788;2023-09-08T07:18:38;19.50;99.90
41928;DHT22;27616;51.420;6.788;2023-09-08T07:21:06;19.60;99.90
41928;DHT22;27616;51.420;6.788;2023-09-08T07:23:32;19.80;99.90
41928;DHT22;27616;51.420;6.788;2023-09-08T07:25:58;19.90;99.90
41928;DHT22;27616;51.420;6.788;2023-09-08T07:28:27;20.00;99.90
41928;DHT22;27616;51.420;6.788;2023-09-08T07:31:05;20.20;99.90
41928;DHT22;27616;51.420;6.788;2023-09-08T07:33:34;20.20;99.90
41928;DHT22;27616;51.420;6.788;2023-09-08T07:36:04;20.40;99.90
41928;DHT22;27616;51.420;6.788;2023-09-08T07:38:31;20.90;99.90
41928;DHT22;27616;51.420;6.788;2023-09-08T07:40:57;21.10;99.90
41928;DHT22;27616;51.420;6.788;2023-09-08T07:43:25;21.20;99.90
41928;DHT22;27616;51.420;6.788;2023-09-08T07:45:51;21.40;99.90
41928;DHT22;27616;51.420;6.788;2023-09-08T07:48:17;21.80;99.90
41928;DHT22;27616;51.420;6.788;2023-09-08T07:50:42;22.00;99.90
41928;DHT22;27616;51.420;6.788;2023-09-08T07:53:08;22.10;99.90
41928;DHT22;27616;51.420;6.788;2023-09-08T07:55:33;22.40;99.90
41928;DHT22;27616;51.420;6.788;2023-09-08T07:58:01;22.50;99.90
41928;DHT22;27616;51.420;6.788;2023-09-08T08:00:27;22.50;99.90
41928;DHT22;27616;51.420;6.788;2023-09-08T08:02:55;22.80;99.90
41928;DHT22;27616;51.420;6.788;2023-09-08T08:05:21;22.90;99.90
41928;DHT22;27616;51.420;6.788;2023-09-08T08:11:34;23.30;99.90
41928;DHT22;27616;51.420;6.788;2023-09-08T08:14:00;23.50;99.90
41928;DHT22;27616;51.420;6.788;2023-09-08T08:16:26;23.60;99.90
41928;DHT22;27616;51.420;6.788;2023-09-08T08:18:52;23.70;99.90
41928;DHT22;27616;51.420;6.788;2023-09-08T08:21:23;23.90;99.90
41928;DHT22;27616;51.420;6.788;2023-09-08T08:23:50;24.10;99.90
41928;DHT22;27616;51.420;6.788;2023-09-08T08:26:16;24.20;99.90
41928;DHT22;27616;51.420;6.788;2023-09-08T08:28:41;24.40;99.90
41928;DHT22;27616;51.420;6.788;2023-09-08T08:31:07;24.50;99.90
41928;DHT22;27616;51.420;6.788;2023-09-08T08:33:33;24.60;99.90
41928;DHT22;27616;51.420;6.788;2023-09-08T08:35:58;24.70;99.90
41928;DHT22;27616;51.420;6.788;2023-09-08T08:38:24;24.80;99.90
41928;DHT22;27616;51.420;6.788;2023-09-08T08:40:50;24.90;99.90
41928;DHT22;27616;51.420;6.788;2023-09-08T08:43:15;25.00;99.90
41928;DHT22;27616;51.420;6.788;2023-09-08T08:45:42;25.10;99.90
41928;DHT22;27616;51.420;6.788;2023-09-08T08:48:08;25.20;99.90
41928;DHT22;27616;51.420;6.788;2023-09-08T08:50:35;25.30;99.90
41928;DHT22;27616;51.420;6.788;2023-09-08T08:53:01;25.40;99.90
41928;DHT22;27616;51.420;6.788;2023-09-08T08:55:29;25.50;99.90
41928;DHT22;27616;51.420;6.788;2023-09-08T08:58:01;25.50;99.80
41928;DHT22;27616;51.420;6.788;2023-09-08T09:00:28;25.60;99.90
41928;DHT22;27616;51.420;6.788;2023-09-08T09:02:54;25.70;99.60
41928;DHT22;27616;51.420;6.788;2023-09-08T09:05:21;25.70;99.90
41928;DHT22;27616;51.420;6.788;2023-09-08T09:07:48;25.90;99.70
41928;DHT22;27616;51.420;6.788;2023-09-08T09:10:15;25.90;99.10
41928;DHT22;27616;51.420;6.788;2023-09-08T09:12:41;26.00;99.50
41928;DHT22;27616;51.420;6.788;2023-09-08T09:15:07;26.10;99.00
41928;DHT22;27616;51.420;6.788;2023-09-08T09:17:37;26.10;99.00
41928;DHT22;27616;51.420;6.788;2023-09-08T09:20:13;26.20;99.80
41928;DHT22;27616;51.420;6.788;2023-09-08T09:22:44;26.40;98.80
41928;DHT22;27616;51.420;6.788;2023-09-08T09:25:09;26.50;98.50
41928;DHT22;27616;51.420;6.788;2023-09-08T09:27:36;26.50;98.40
41928;DHT22;27616;51.420;6.788;2023-09-08T09:30:04;26.50;98.50
41928;DHT22;27616;51.420;6.788;2023-09-08T09:32:30;26.60;98.50
41928;DHT22;27616;51.420;6.788;2023-09-08T09:34:57;26.70;98.90
41928;DHT22;27616;51.420;6.788;2023-09-08T09:37:23;26.80;99.20
41928;DHT22;27616;51.420;6.788;2023-09-08T09:39:53;26.90;97.70
41928;DHT22;27616;51.420;6.788;2023-09-08T09:42:20;27.00;97.80
41928;DHT22;27616;51.420;6.788;2023-09-08T09:44:52;27.00;97.90
41928;DHT22;27616;51.420;6.788;2023-09-08T09:47:19;27.10;98.30
41928;DHT22;27616;51.420;6.788;2023-09-08T09:49:47;27.10;97.80
41928;DHT22;27616;51.420;6.788;2023-09-08T09:52:14;27.30;98.00
41928;DHT22;27616;51.420;6.788;2023-09-08T09:54:42;27.50;97.70
41928;DHT22;27616;51.420;6.788;2023-09-08T09:57:11;27.70;99.00
41928;DHT22;27616;51.420;6.788;2023-09-08T09:59:39;27.90;97.30
41928;DHT22;27616;51.420;6.788;2023-09-08T10:02:12;28.20;96.20
41928;DHT22;27616;51.420;6.788;2023-09-08T10:04:40;28.30;96.10
41928;DHT22;27616;51.420;6.788;2023-09-08T10:07:06;28.40;95.50
41928;DHT22;27616;51.420;6.788;2023-09-08T10:09:32;28.30;96.10
41928;DHT22;27616;51.420;6.788;2023-09-08T10:12:03;28.40;95.90
41928;DHT22;27616;51.420;6.788;2023-09-08T10:14:30;28.50;95.80
41928;DHT22;27616;51.420;6.788;2023-09-08T10:16:59;28.70;95.90
41928;DHT22;27616;51.420;6.788;2023-09-08T10:19:25;28.90;94.70
41928;DHT22;27616;51.420;6.788;2023-09-08T10:21:54;28.90;96.00
41928;DHT22;27616;51.420;6.788;2023-09-08T10:24:27;29.10;94.90
41928;DHT22;27616;51.420;6.788;2023-09-08T10:27:09;29.00;94.80
41928;DHT22;27616;51.420;6.788;2023-09-08T10:29:36;29.10;95.10
41928;DHT22;27616;51.420;6.788;2023-09-08T10:32:04;29.20;95.00
41928;DHT22;27616;51.420;6.788;2023-09-08T10:34:30;29.50;94.00
41928;DHT22;27616;51.420;6.788;2023-09-08T10:36:57;29.90;93.70
41928;DHT22;27616;51.420;6.788;2023-09-08T10:42:20;30.20;93.60
41928;DHT22;27616;51.420;6.788;2023-09-08T10:47:24;30.70;92.80
41928;DHT22;27616;51.420;6.788;2023-09-08T10:49:50;30.80;92.80
41928;DHT22;27616;51.420;6.788;2023-09-08T10:52:21;30.60;92.10
41928;DHT22;27616;51.420;6.788;2023-09-08T10:54:49;30.50;92.00
41928;DHT22;27616;51.420;6.788;2023-09-08T10:57:16;30.40;91.60
41928;DHT22;27616;51.420;6.788;2023-09-08T10:59:58;30.20;92.80
41928;DHT22;27616;51.420;6.788;2023-09-08T11:02:35;30.10;92.70
41928;DHT22;27616;51.420;6.788;2023-09-08T11:05:02;30.20;92.20
41928;DHT22;27616;51.420;6.788;2023-09-08T11:07:31;30.10;91.90
41928;DHT22;27616;51.420;6.788;2023-09-08T11:09:57;30.10;93.20
41928;DHT22;27616;51.420;6.788;2023-09-08T11:12:26;30.00;93.00
41928;DHT22;27616;51.420;6.788;2023-09-08T11:14:52;29.80;93.20
41928;DHT22;27616;51.420;6.788;2023-09-08T11:17:18;29.50;92.90
41928;DHT22;27616;51.420;6.788;2023-09-08T11:19:48;29.50;92.80
41928;DHT22;27616;51.420;6.788;2023-09-08T11:22:15;29.50;92.40
41928;DHT22;27616;51.420;6.788;2023-09-08T11:24:42;29.40;92.90
41928;DHT22;27616;51.420;6.788;2023-09-08T11:27:09;29.30;93.00
41928;DHT22;27616;51.420;6.788;2023-09-08T11:29:35;29.50;93.40
41928;DHT22;27616;51.420;6.788;2023-09-08T11:32:02;29.80;92.40
41928;DHT22;27616;51.420;6.788;2023-09-08T11:34:29;29.90;93.20
41928;DHT22;27616;51.420;6.788;2023-09-08T11:36:54;29.90;93.40
41928;DHT22;27616;51.420;6.788;2023-09-08T11:39:25;29.90;92.80
41928;DHT22;27616;51.420;6.788;2023-09-08T11:41:53;29.90;92.50
41928;DHT22;27616;51.420;6.788;2023-09-08T11:44:19;30.00;91.50
41928;DHT22;27616;51.420;6.788;2023-09-08T11:46:46;30.10;91.70
41928;DHT22;27616;51.420;6.788;2023-09-08T11:49:13;30.20;91.80
41928;DHT22;27616;51.420;6.788;2023-09-08T11:51:39;30.30;91.90
41928;DHT22;27616;51.420;6.788;2023-09-08T11:54:05;30.30;90.80
41928;DHT22;27616;51.420;6.788;2023-09-08T11:56:30;30.10;91.80
41928;DHT22;27616;51.420;6.788;2023-09-08T11:58:57;30.10;91.30
41928;DHT22;27616;51.420;6.788;2023-09-08T12:01:23;30.20;91.20
41928;DHT22;27616;51.420;6.788;2023-09-08T12:03:53;30.10;91.20
41928;DHT22;27616;51.420;6.788;2023-09-08T12:06:19;30.00;91.40
41928;DHT22;27616;51.420;6.788;2023-09-08T12:08:45;29.90;91.20
41928;DHT22;27616;51.420;6.788;2023-09-08T12:11:11;29.90;91.70
41928;DHT22;27616;51.420;6.788;2023-09-08T12:13:37;29.90;91.90
41928;DHT22;27616;51.420;6.788;2023-09-08T12:16:20;30.00;91.60
41928;DHT22;27616;51.420;6.788;2023-09-08T12:18:48;30.00;90.70
41928;DHT22;27616;51.420;6.788;2023-09-08T12:21:15;30.00;91.20
41928;DHT22;27616;51.420;6.788;2023-09-08T12:23:48;29.90;91.50
41928;DHT22;27616;51.420;6.788;2023-09-08T12:26:14;29.80;91.50
41928;DHT22;27616;51.420;6.788;2023-09-08T12:28:42;29.70;91.80
41928;DHT22;27616;51.420;6.788;2023-09-08T12:31:08;29.90;91.10
41928;DHT22;27616;51.420;6.788;2023-09-08T12:33:35;29.90;90.90
41928;DHT22;27616;51.420;6.788;2023-09-08T12:36:13;29.90;92.00
41928;DHT22;27616;51.420;6.788;2023-09-08T12:38:39;29.80;91.40
41928;DHT22;27616;51.420;6.788;2023-09-08T12:41:05;29.80;92.00
41928;DHT22;27616;51.420;6.788;2023-09-08T12:43:30;29.80;91.70
41928;DHT22;27616;51.420;6.788;2023-09-08T12:45:56;29.70;91.40
41928;DHT22;27616;51.420;6.788;2023-09-08T12:48:22;29.60;91.80
41928;DHT22;27616;51.420;6.788;2023-09-08T12:50:48;29.70;91.50
41928;DHT22;27616;51.420;6.788;2023-09-08T12:53:14;29.90;91.30
41928;DHT22;27616;51.420;6.788;2023-09-08T12:55:40;29.90;91.60
41928;DHT22;27616;51.420;6.788;2023-09-08T12:58:06;30.10;91.10
41928;DHT22;27616;51.420;6.788;2023-09-08T13:00:31;30.10;90.90
41928;DHT22;27616;51.420;6.788;2023-09-08T13:02:57;30.30;90.80
41928;DHT22;27616;51.420;6.788;2023-09-08T13:05:23;30.30;90.50
41928;DHT22;27616;51.420;6.788;2023-09-08T13:07:48;30.50;91.40
41928;DHT22;27616;51.420;6.788;2023-09-08T13:10:14;30.60;91.10
41928;DHT22;27616;51.420;6.788;2023-09-08T13:12:41;30.50;90.70
41928;DHT22;27616;51.420;6.788;2023-09-08T13:15:07;30.60;89.90
41928;DHT22;27616;51.420;6.788;2023-09-08T13:17:33;30.60;89.60
41928;DHT22;27616;51.420;6.788;2023-09-08T13:19:58;30.70;90.30
41928;DHT22;27616;51.420;6.788;2023-09-08T13:22:24;30.70;89.30
41928;DHT22;27616;51.420;6.788;2023-09-08T13:24:49;30.80;89.20
41928;DHT22;27616;51.420;6.788;2023-09-08T13:27:15;30.90;90.00
41928;DHT22;27616;51.420;6.788;2023-09-08T13:29:43;30.90;90.00
41928;DHT22;27616;51.420;6.788;2023-09-08T13:32:09;31.00;87.70
41928;DHT22;27616;51.420;6.788;2023-09-08T13:34:35;30.90;90.30
41928;DHT22;27616;51.420;6.788;2023-09-08T13:37:01;30.90;87.10
41928;DHT22;27616;51.420;6.788;2023-09-08T13:39:28;30.90;88.80
41928;DHT22;27616;51.420;6.788;2023-09-08T13:41:54;31.00;89.00
41928;DHT22;27616;51.420;6.788;2023-09-08T13:44:22;30.90;88.90
41928;DHT22;27616;51.420;6.788;2023-09-08T13:46:51;31.00;87.70
41928;DHT22;27616;51.420;6.788;2023-09-08T13:49:18;30.90;87.80
41928;DHT22;27616;51.420;6.788;2023-09-08T13:51:43;30.90;88.40
41928;DHT22;27616;51.420;6.788;2023-09-08T13:54:10;30.80;88.90
41928;DHT22;27616;51.420;6.788;2023-09-08T13:56:40;30.60;90.00
41928;DHT22;27616;51.420;6.788;2023-09-08T13:59:07;30.40;88.80
41928;DHT22;27616;51.420;6.788;2023-09-08T14:01:33;30.40;90.20
41928;DHT22;27616;51.420;6.788;2023-09-08T14:03:59;30.50;89.80
41928;DHT22;27616;51.420;6.788;2023-09-08T14:06:26;30.40;90.10
41928;DHT22;27616;51.420;6.788;2023-09-08T14:08:52;30.30;90.00
41928;DHT22;27616;51.420;6.788;2023-09-08T14:11:18;30.40;90.10
41928;DHT22;27616;51.420;6.788;2023-09-08T14:13:44;30.50;89.10
41928;DHT22;27616;51.420;6.788;2023-09-08T14:16:11;30.60;87.20
41928;DHT22;27616;51.420;6.788;2023-09-08T14:18:37;30.60;88.20
41928;DHT22;27616;51.420;6.788;2023-09-08T14:21:03;30.60;87.50
41928;DHT22;27616;51.420;6.788;2023-09-08T14:23:29;30.60;89.10
41928;DHT22;27616;51.420;6.788;2023-09-08T14:25:55;30.70;88.20
41928;DHT22;27616;51.420;6.788;2023-09-08T14:28:21;30.80;88.50
41928;DHT22;27616;51.420;6.788;2023-09-08T14:30:47;30.80;88.10
41928;DHT22;27616;51.420;6.788;2023-09-08T14:33:12;30.80;87.40
41928;DHT22;27616;51.420;6.788;2023-09-08T14:35:44;30.70;88.60
41928;DHT22;27616;51.420;6.788;2023-09-08T14:38:12;30.80;87.70
41928;DHT22;27616;51.420;6.788;2023-09-08T14:40:38;30.70;88.60
41928;DHT22;27616;51.420;6.788;2023-09-08T14:43:04;30.70;87.60
41928;DHT22;27616;51.420;6.788;2023-09-08T14:45:30;30.70;87.80
41928;DHT22;27616;51.420;6.788;2023-09-08T14:47:55;30.70;88.80
41928;DHT22;27616;51.420;6.788;2023-09-08T14:50:21;30.80;88.20
41928;DHT22;27616;51.420;6.788;2023-09-08T14:52:46;30.90;87.60
41928;DHT22;27616;51.420;6.788;2023-09-08T14:55:12;30.90;88.60
41928;DHT22;27616;51.420;6.788;2023-09-08T14:57:38;30.90;86.90
41928;DHT22;27616;51.420;6.788;2023-09-08T15:00:04;30.90;87.10
41928;DHT22;27616;51.420;6.788;2023-09-08T15:02:31;30.90;86.10
41928;DHT22;27616;51.420;6.788;2023-09-08T15:04:56;30.90;86.60
41928;DHT22;27616;51.420;6.788;2023-09-08T15:07:22;30.80;87.60
41928;DHT22;27616;51.420;6.788;2023-09-08T15:09:48;30.80;86.70
41928;DHT22;27616;51.420;6.788;2023-09-08T15:12:13;30.80;86.50
41928;DHT22;27616;51.420;6.788;2023-09-08T15:14:39;30.70;85.80
41928;DHT22;27616;51.420;6.788;2023-09-08T15:17:05;30.70;86.80
41928;DHT22;27616;51.420;6.788;2023-09-08T15:19:32;30.70;86.40
41928;DHT22;27616;51.420;6.788;2023-09-08T15:21:58;30.60;87.20
41928;DHT22;27616;51.420;6.788;2023-09-08T15:24:24;30.70;87.20
41928;DHT22;27616;51.420;6.788;2023-09-08T15:26:50;30.70;86.20
41928;DHT22;27616;51.420;6.788;2023-09-08T15:29:16;30.70;84.80
41928;DHT22;27616;51.420;6.788;2023-09-08T15:31:42;30.70;84.30
41928;DHT22;27616;51.420;6.788;2023-09-08T15:34:08;30.70;84.20
41928;DHT22;27616;51.420;6.788;2023-09-08T15:36:35;30.70;83.80
41928;DHT22;27616;51.420;6.788;2023-09-08T15:39:00;30.60;84.30
41928;DHT22;27616;51.420;6.788;2023-09-08T15:41:26;30.50;84.20